sensor_id;sensor_type;location;lat;lon;timestamp;P1;durP1;ratioP1;P2;durP2;ratioP2
35634;SDS011;21757;43.610;1.440;2022-12-24T00:01:24;36.28;;;20.65;;
35634;SDS011;21757;43.610;1.440;2022-12-24T00:03:49;34.63;;;19.92;;
35634;SDS011;21757;43.610;1.440;2022-12-24T00:06:19;28.95;;;18.70;;
35634;SDS011;21757;43.610;1.440;2022-12-24T00:08:47;29.70;;;18.42;;
35634;SDS011;21757;43.610;1.440;2022-12-24T00:11:12;34.55;;;19.98;;
35634;SDS011;21757;43.610;1.440;2022-12-24T00:13:38;31.13;;;19.70;;
35634;SDS011;21757;43.610;1.440;2022-12-24T00:16:04;29.73;;;18.92;;
35634;SDS011;21757;43.610;1.440;2022-12-24T00:18:30;29.00;;;19.20;;
35634;SDS011;21757;43.610;1.440;2022-12-24T00:20:56;28.25;;;16.77;;
35634;SDS011;21757;43.610;1.440;2022-12-24T00:23:22;25.77;;;16.55;;
35634;SDS011;21757;43.610;1.440;2022-12-24T00:25:47;30.20;;;17.70;;
35634;SDS011;21757;43.610;1.440;2022-12-24T00:28:13;24.77;;;17.38;;
35634;SDS011;21757;43.610;1.440;2022-12-24T00:30:41;27.80;;;17.30;;
35634;SDS011;21757;43.610;1.440;2022-12-24T00:33:07;26.60;;;17.13;;
35634;SDS011;21757;43.610;1.440;2022-12-24T00:35:33;25.52;;;16.35;;
35634;SDS011;21757;43.610;1.440;2022-12-24T00:37:59;26.58;;;16.75;;
35634;SDS011;21757;43.610;1.440;2022-12-24T00:40:25;28.05;;;16.40;;
35634;SDS011;21757;43.610;1.440;2022-12-24T00:42:51;25.10;;;16.52;;
35634;SDS011;21757;43.610;1.440;2022-12-24T00:45:16;34.17;;;17.67;;
35634;SDS011;21757;43.610;1.440;2022-12-24T00:47:42;24.23;;;16.52;;
35634;SDS011;21757;43.610;1.440;2022-12-24T00:50:08;23.23;;;16.35;;
35634;SDS011;21757;43.610;1.440;2022-12-24T00:52:34;28.08;;;16.33;;
35634;SDS011;21757;43.610;1.440;2022-12-24T00:55:00;26.58;;;16.27;;
35634;SDS011;21757;43.610;1.440;2022-12-24T00:57:25;26.25;;;15.88;;
35634;SDS011;21757;43.610;1.440;2022-12-24T00:59:51;25.35;;;16.27;;
35634;SDS011;21757;43.610;1.440;2022-12-24T01:02:17;24.05;;;14.98;;
35634;SDS011;21757;43.610;1.440;2022-12-24T01:04:42;25.15;;;15.73;;
35634;SDS011;21757;43.610;1.440;2022-12-24T01:07:27;26.60;;;15.73;;
35634;SDS011;21757;43.610;1.440;2022-12-24T01:09:52;27.77;;;16.10;;
35634;SDS011;21757;43.610;1.440;2022-12-24T01:12:18;27.70;;;16.10;;
35634;SDS011;21757;43.610;1.440;2022-12-24T01:14:43;22.85;;;14.57;;
35634;SDS011;21757;43.610;1.440;2022-12-24T01:17:09;23.58;;;15.25;;
35634;SDS011;21757;43.610;1.440;2022-12-24T01:19:35;22.42;;;15.45;;
35634;SDS011;21757;43.610;1.440;2022-12-24T01:22:00;24.10;;;15.95;;
35634;SDS011;21757;43.610;1.440;2022-12-24T01:24:26;24.73;;;15.40;;
35634;SDS011;21757;43.610;1.440;2022-12-24T01:26:52;23.15;;;14.50;;
35634;SDS011;21757;43.610;1.440;2022-12-24T01:29:18;21.23;;;13.60;;
35634;SDS011;21757;43.610;1.440;2022-12-24T01:31:43;19.52;;;13.43;;
35634;SDS011;21757;43.610;1.440;2022-12-24T01:34:09;21.92;;;14.00;;
35634;SDS011;21757;43.610;1.440;2022-12-24T01:36:35;23.65;;;14.50;;
35634;SDS011;21757;43.610;1.440;2022-12-24T01:39:01;23.17;;;13.68;;
35634;SDS011;21757;43.610;1.440;2022-12-24T01:41:28;20.85;;;12.95;;
35634;SDS011;21757;43.610;1.440;2022-12-24T01:46:52;19.25;;;13.00;;
35634;SDS011;21757;43.610;1.440;2022-12-24T01:49:22;19.88;;;12.93;;
35634;SDS011;21757;43.610;1.440;2022-12-24T01:51:50;19.83;;;13.10;;
35634;SDS011;21757;43.610;1.440;2022-12-24T01:54:31;18.55;;;12.40;;
35634;SDS011;21757;43.610;1.440;2022-12-24T01:57:04;19.85;;;12.55;;
35634;SDS011;21757;43.610;1.440;2022-12-24T01:59:34;18.90;;;12.82;;
35634;SDS011;21757;43.610;1.440;2022-12-24T02:02:01;19.25;;;12.38;;
35634;SDS011;21757;43.610;1.440;2022-12-24T02:04:32;19.02;;;11.40;;
35634;SDS011;21757;43.610;1.440;2022-12-24T02:07:03;19.65;;;11.80;;
35634;SDS011;21757;43.610;1.440;2022-12-24T02:09:29;16.00;;;11.75;;
35634;SDS011;21757;43.610;1.440;2022-12-24T02:11:57;16.98;;;11.63;;
35634;SDS011;21757;43.610;1.440;2022-12-24T02:14:25;17.65;;;11.55;;
35634;SDS011;21757;43.610;1.440;2022-12-24T02:16:56;16.45;;;11.18;;
35634;SDS011;21757;43.610;1.440;2022-12-24T02:31:05;17.48;;;11.07;;
35634;SDS011;21757;43.610;1.440;2022-12-24T02:33:37;17.48;;;11.52;;
35634;SDS011;21757;43.610;1.440;2022-12-24T02:39:01;19.27;;;12.68;;
35634;SDS011;21757;43.610;1.440;2022-12-24T02:41:33;17.70;;;11.80;;
35634;SDS011;21757;43.610;1.440;2022-12-24T02:44:21;20.63;;;12.10;;
35634;SDS011;21757;43.610;1.440;2022-12-24T02:46:51;15.27;;;11.43;;
35634;SDS011;21757;43.610;1.440;2022-12-24T02:49:17;17.38;;;11.52;;
35634;SDS011;21757;43.610;1.440;2022-12-24T02:51:43;19.70;;;11.73;;
35634;SDS011;21757;43.610;1.440;2022-12-24T02:54:09;16.85;;;11.35;;
35634;SDS011;21757;43.610;1.440;2022-12-24T02:56:41;16.27;;;11.07;;
35634;SDS011;21757;43.610;1.440;2022-12-24T03:02:25;19.00;;;11.68;;
35634;SDS011;21757;43.610;1.440;2022-12-24T03:10:26;17.25;;;11.35;;
35634;SDS011;21757;43.610;1.440;2022-12-24T03:12:55;19.25;;;10.68;;
35634;SDS011;21757;43.610;1.440;2022-12-24T03:15:24;15.95;;;11.13;;
35634;SDS011;21757;43.610;1.440;2022-12-24T03:17:52;19.63;;;11.38;;
35634;SDS011;21757;43.610;1.440;2022-12-24T03:20:33;19.02;;;11.98;;
35634;SDS011;21757;43.610;1.440;2022-12-24T03:23:10;15.15;;;10.60;;
35634;SDS011;21757;43.610;1.440;2022-12-24T03:25:40;18.38;;;10.73;;
35634;SDS011;21757;43.610;1.440;2022-12-24T03:28:08;12.40;;;7.95;;
35634;SDS011;21757;43.610;1.440;2022-12-24T03:30:38;15.10;;;10.20;;
35634;SDS011;21757;43.610;1.440;2022-12-24T03:33:05;17.40;;;10.38;;
35634;SDS011;21757;43.610;1.440;2022-12-24T03:35:31;18.55;;;11.50;;
35634;SDS011;21757;43.610;1.440;2022-12-24T03:37:57;17.23;;;10.45;;
35634;SDS011;21757;43.610;1.440;2022-12-24T03:40:22;17.70;;;10.25;;
35634;SDS011;21757;43.610;1.440;2022-12-24T03:42:48;14.98;;;10.68;;
35634;SDS011;21757;43.610;1.440;2022-12-24T03:45:14;13.77;;;9.63;;
35634;SDS011;21757;43.610;1.440;2022-12-24T03:47:40;16.35;;;9.48;;
35634;SDS011;21757;43.610;1.440;2022-12-24T03:50:05;15.85;;;9.98;;
35634;SDS011;21757;43.610;1.440;2022-12-24T03:52:31;14.50;;;9.27;;
35634;SDS011;21757;43.610;1.440;2022-12-24T03:54:57;15.10;;;9.60;;
35634;SDS011;21757;43.610;1.440;2022-12-24T03:57:23;13.85;;;9.50;;
35634;SDS011;21757;43.610;1.440;2022-12-24T03:59:48;13.65;;;9.77;;
35634;SDS011;21757;43.610;1.440;2022-12-24T04:02:14;16.77;;;9.80;;
35634;SDS011;21757;43.610;1.440;2022-12-24T04:04:40;12.30;;;8.88;;
35634;SDS011;21757;43.610;1.440;2022-12-24T04:07:06;12.70;;;9.00;;
35634;SDS011;21757;43.610;1.440;2022-12-24T04:09:31;15.00;;;9.20;;
35634;SDS011;21757;43.610;1.440;2022-12-24T04:11:57;16.52;;;9.40;;
35634;SDS011;21757;43.610;1.440;2022-12-24T04:14:23;13.40;;;9.20;;
35634;SDS011;21757;43.610;1.440;2022-12-24T04:16:49;14.90;;;9.48;;
35634;SDS011;21757;43.610;1.440;2022-12-24T04:19:14;16.70;;;9.40;;
35634;SDS011;21757;43.610;1.440;2022-12-24T04:21:40;16.80;;;11.00;;
35634;SDS011;21757;43.610;1.440;2022-12-24T04:24:06;22.60;;;11.82;;
35634;SDS011;21757;43.610;1.440;2022-12-24T04:26:31;19.98;;;11.98;;
35634;SDS011;21757;43.610;1.440;2022-12-24T04:28:58;21.30;;;11.88;;
35634;SDS011;21757;43.610;1.440;2022-12-24T04:31:24;16.80;;;11.32;;
35634;SDS011;21757;43.610;1.440;2022-12-24T04:33:50;14.68;;;9.48;;
35634;SDS011;21757;43.610;1.440;2022-12-24T04:36:17;19.30;;;10.25;;
35634;SDS011;21757;43.610;1.440;2022-12-24T04:38:44;16.88;;;9.18;;
35634;SDS011;21757;43.610;1.440;2022-12-24T04:41:15;21.60;;;10.05;;
35634;SDS011;21757;43.610;1.440;2022-12-24T04:43:42;12.38;;;8.98;;
35634;SDS011;21757;43.610;1.440;2022-12-24T04:46:09;13.52;;;9.13;;
35634;SDS011;21757;43.610;1.440;2022-12-24T04:48:46;15.82;;;10.00;;
35634;SDS011;21757;43.610;1.440;2022-12-24T04:51:13;13.65;;;9.40;;
35634;SDS011;21757;43.610;1.440;2022-12-24T04:53:40;17.17;;;9.82;;
35634;SDS011;21757;43.610;1.440;2022-12-24T04:56:07;15.73;;;9.70;;
35634;SDS011;21757;43.610;1.440;2022-12-24T05:01:04;25.88;;;14.35;;
35634;SDS011;21757;43.610;1.440;2022-12-24T05:03:30;17.92;;;12.38;;
35634;SDS011;21757;43.610;1.440;2022-12-24T05:06:00;28.60;;;14.73;;
35634;SDS011;21757;43.610;1.440;2022-12-24T05:08:27;24.50;;;14.98;;
35634;SDS011;21757;43.610;1.440;2022-12-24T05:10:56;17.25;;;10.88;;
35634;SDS011;21757;43.610;1.440;2022-12-24T05:13:23;34.33;;;18.80;;
35634;SDS011;21757;43.610;1.440;2022-12-24T05:15:49;37.97;;;21.33;;
35634;SDS011;21757;43.610;1.440;2022-12-24T05:18:15;24.10;;;14.85;;
35634;SDS011;21757;43.610;1.440;2022-12-24T05:20:41;25.48;;;12.02;;
35634;SDS011;21757;43.610;1.440;2022-12-24T05:23:06;18.98;;;11.60;;
35634;SDS011;21757;43.610;1.440;2022-12-24T05:25:52;17.98;;;11.63;;
35634;SDS011;21757;43.610;1.440;2022-12-24T05:28:36;19.75;;;11.75;;
35634;SDS011;21757;43.610;1.440;2022-12-24T05:31:02;17.27;;;10.48;;
35634;SDS011;21757;43.610;1.440;2022-12-24T05:33:27;14.48;;;10.07;;
35634;SDS011;21757;43.610;1.440;2022-12-24T05:35:53;19.42;;;10.65;;
35634;SDS011;21757;43.610;1.440;2022-12-24T05:38:19;18.33;;;10.70;;
35634;SDS011;21757;43.610;1.440;2022-12-24T05:40:45;16.33;;;9.88;;
35634;SDS011;21757;43.610;1.440;2022-12-24T05:43:10;15.85;;;8.93;;
35634;SDS011;21757;43.610;1.440;2022-12-24T05:45:36;33.08;;;17.77;;
35634;SDS011;21757;43.610;1.440;2022-12-24T05:48:02;22.20;;;13.40;;
35634;SDS011;21757;43.610;1.440;2022-12-24T05:50:27;17.73;;;10.82;;
35634;SDS011;21757;43.610;1.440;2022-12-24T05:52:53;17.95;;;11.65;;
35634;SDS011;21757;43.610;1.440;2022-12-24T05:55:19;25.23;;;15.60;;
35634;SDS011;21757;43.610;1.440;2022-12-24T05:57:44;14.05;;;9.75;;
35634;SDS011;21757;43.610;1.440;2022-12-24T06:00:10;14.82;;;9.95;;
35634;SDS011;21757;43.610;1.440;2022-12-24T06:02:36;17.95;;;10.70;;
35634;SDS011;21757;43.610;1.440;2022-12-24T06:05:01;17.15;;;9.80;;
35634;SDS011;21757;43.610;1.440;2022-12-24T06:07:27;15.55;;;9.57;;
35634;SDS011;21757;43.610;1.440;2022-12-24T06:09:53;16.90;;;9.88;;
35634;SDS011;21757;43.610;1.440;2022-12-24T06:12:18;13.88;;;9.68;;
35634;SDS011;21757;43.610;1.440;2022-12-24T06:14:44;16.00;;;9.77;;
35634;SDS011;21757;43.610;1.440;2022-12-24T06:17:10;17.02;;;10.27;;
35634;SDS011;21757;43.610;1.440;2022-12-24T06:19:35;14.85;;;9.55;;
35634;SDS011;21757;43.610;1.440;2022-12-24T06:22:01;17.23;;;10.02;;
35634;SDS011;21757;43.610;1.440;2022-12-24T06:24:27;17.83;;;10.55;;
35634;SDS011;21757;43.610;1.440;2022-12-24T06:26:52;18.90;;;11.55;;
35634;SDS011;21757;43.610;1.440;2022-12-24T06:29:18;57.15;;;30.85;;
35634;SDS011;21757;43.610;1.440;2022-12-24T06:31:43;19.85;;;12.20;;
35634;SDS011;21757;43.610;1.440;2022-12-24T06:34:09;22.52;;;12.68;;
35634;SDS011;21757;43.610;1.440;2022-12-24T06:36:35;20.42;;;12.77;;
35634;SDS011;21757;43.610;1.440;2022-12-24T06:39:00;19.88;;;12.07;;
35634;SDS011;21757;43.610;1.440;2022-12-24T06:41:26;21.48;;;13.77;;
35634;SDS011;21757;43.610;1.440;2022-12-24T06:43:52;21.30;;;12.43;;
35634;SDS011;21757;43.610;1.440;2022-12-24T06:46:18;19.13;;;12.02;;
35634;SDS011;21757;43.610;1.440;2022-12-24T06:48:45;25.83;;;15.07;;
35634;SDS011;21757;43.610;1.440;2022-12-24T06:51:12;27.10;;;14.75;;
35634;SDS011;21757;43.610;1.440;2022-12-24T06:53:38;23.65;;;14.18;;
35634;SDS011;21757;43.610;1.440;2022-12-24T06:56:06;21.33;;;13.75;;
35634;SDS011;21757;43.610;1.440;2022-12-24T06:58:33;19.25;;;13.10;;
35634;SDS011;21757;43.610;1.440;2022-12-24T07:01:00;16.25;;;10.65;;
35634;SDS011;21757;43.610;1.440;2022-12-24T07:03:27;18.27;;;12.05;;
35634;SDS011;21757;43.610;1.440;2022-12-24T07:05:53;22.52;;;13.45;;
35634;SDS011;21757;43.610;1.440;2022-12-24T07:08:18;20.88;;;12.27;;
35634;SDS011;21757;43.610;1.440;2022-12-24T07:10:44;20.13;;;12.82;;
35634;SDS011;21757;43.610;1.440;2022-12-24T07:13:10;19.02;;;12.88;;
35634;SDS011;21757;43.610;1.440;2022-12-24T07:15:35;18.55;;;11.82;;
35634;SDS011;21757;43.610;1.440;2022-12-24T07:18:01;22.42;;;13.48;;
35634;SDS011;21757;43.610;1.440;2022-12-24T07:20:27;19.20;;;11.68;;
35634;SDS011;21757;43.610;1.440;2022-12-24T07:22:52;17.52;;;11.02;;
35634;SDS011;21757;43.610;1.440;2022-12-24T07:25:18;19.77;;;11.68;;
35634;SDS011;21757;43.610;1.440;2022-12-24T07:27:43;19.92;;;12.20;;
35634;SDS011;21757;43.610;1.440;2022-12-24T07:30:09;16.80;;;11.00;;
35634;SDS011;21757;43.610;1.440;2022-12-24T07:32:35;16.15;;;10.50;;
35634;SDS011;21757;43.610;1.440;2022-12-24T07:35:01;16.65;;;11.25;;
35634;SDS011;21757;43.610;1.440;2022-12-24T07:37:27;15.88;;;10.68;;
35634;SDS011;21757;43.610;1.440;2022-12-24T07:39:53;19.48;;;11.13;;
35634;SDS011;21757;43.610;1.440;2022-12-24T07:42:18;13.77;;;10.10;;
35634;SDS011;21757;43.610;1.440;2022-12-24T07:44:44;18.98;;;12.32;;
35634;SDS011;21757;43.610;1.440;2022-12-24T07:47:10;19.50;;;10.88;;
35634;SDS011;21757;43.610;1.440;2022-12-24T07:49:35;18.33;;;10.40;;
35634;SDS011;21757;43.610;1.440;2022-12-24T07:52:02;15.93;;;10.55;;
35634;SDS011;21757;43.610;1.440;2022-12-24T07:54:28;14.73;;;10.55;;
35634;SDS011;21757;43.610;1.440;2022-12-24T07:56:53;15.88;;;11.20;;
35634;SDS011;21757;43.610;1.440;2022-12-24T07:59:19;14.65;;;9.95;;
35634;SDS011;21757;43.610;1.440;2022-12-24T08:01:45;13.60;;;9.55;;
35634;SDS011;21757;43.610;1.440;2022-12-24T08:04:11;19.98;;;12.07;;
35634;SDS011;21757;43.610;1.440;2022-12-24T08:06:36;16.38;;;10.50;;
35634;SDS011;21757;43.610;1.440;2022-12-24T08:09:02;19.35;;;10.82;;
35634;SDS011;21757;43.610;1.440;2022-12-24T08:11:28;16.33;;;9.90;;
35634;SDS011;21757;43.610;1.440;2022-12-24T08:13:54;17.83;;;11.02;;
35634;SDS011;21757;43.610;1.440;2022-12-24T08:16:19;12.98;;;9.32;;
35634;SDS011;21757;43.610;1.440;2022-12-24T08:18:45;24.63;;;12.18;;
35634;SDS011;21757;43.610;1.440;2022-12-24T08:21:11;23.98;;;14.45;;
35634;SDS011;21757;43.610;1.440;2022-12-24T08:23:36;15.70;;;10.30;;
35634;SDS011;21757;43.610;1.440;2022-12-24T08:26:05;14.50;;;9.80;;
35634;SDS011;21757;43.610;1.440;2022-12-24T08:28:32;15.10;;;10.25;;
35634;SDS011;21757;43.610;1.440;2022-12-24T08:30:57;14.80;;;8.98;;
35634;SDS011;21757;43.610;1.440;2022-12-24T08:33:23;14.23;;;9.23;;
35634;SDS011;21757;43.610;1.440;2022-12-24T08:35:52;14.68;;;8.93;;
35634;SDS011;21757;43.610;1.440;2022-12-24T08:38:19;16.63;;;9.70;;
35634;SDS011;21757;43.610;1.440;2022-12-24T08:40:45;14.38;;;9.48;;
35634;SDS011;21757;43.610;1.440;2022-12-24T08:43:16;17.23;;;9.38;;
35634;SDS011;21757;43.610;1.440;2022-12-24T08:45:43;14.98;;;9.52;;
35634;SDS011;21757;43.610;1.440;2022-12-24T08:48:09;15.15;;;9.73;;
35634;SDS011;21757;43.610;1.440;2022-12-24T08:50:37;12.40;;;8.88;;
35634;SDS011;21757;43.610;1.440;2022-12-24T08:53:03;14.93;;;9.63;;
35634;SDS011;21757;43.610;1.440;2022-12-24T08:55:29;11.48;;;8.85;;
35634;SDS011;21757;43.610;1.440;2022-12-24T08:57:55;12.88;;;8.75;;
35634;SDS011;21757;43.610;1.440;2022-12-24T09:00:20;13.38;;;8.15;;
35634;SDS011;21757;43.610;1.440;2022-12-24T09:02:46;13.25;;;8.38;;
35634;SDS011;21757;43.610;1.440;2022-12-24T09:05:12;14.25;;;9.75;;
35634;SDS011;21757;43.610;1.440;2022-12-24T09:07:37;14.07;;;8.25;;
35634;SDS011;21757;43.610;1.440;2022-12-24T09:10:03;15.57;;;8.50;;
35634;SDS011;21757;43.610;1.440;2022-12-24T09:12:30;15.00;;;8.55;;
35634;SDS011;21757;43.610;1.440;2022-12-24T09:14:55;12.52;;;7.85;;
35634;SDS011;21757;43.610;1.440;2022-12-24T09:17:21;14.50;;;8.88;;
35634;SDS011;21757;43.610;1.440;2022-12-24T09:19:47;10.88;;;8.52;;
35634;SDS011;21757;43.610;1.440;2022-12-24T09:22:13;13.38;;;8.70;;
35634;SDS011;21757;43.610;1.440;2022-12-24T09:24:38;17.70;;;12.52;;
35634;SDS011;21757;43.610;1.440;2022-12-24T09:27:04;15.88;;;9.35;;
35634;SDS011;21757;43.610;1.440;2022-12-24T09:29:30;13.02;;;8.45;;
35634;SDS011;21757;43.610;1.440;2022-12-24T09:31:56;15.82;;;8.40;;
35634;SDS011;21757;43.610;1.440;2022-12-24T09:34:22;11.75;;;8.40;;
35634;SDS011;21757;43.610;1.440;2022-12-24T09:36:49;17.48;;;9.68;;
35634;SDS011;21757;43.610;1.440;2022-12-24T09:39:15;12.60;;;9.25;;
35634;SDS011;21757;43.610;1.440;2022-12-24T09:47:16;18.33;;;10.35;;
35634;SDS011;21757;43.610;1.440;2022-12-24T09:49:50;17.75;;;11.13;;
35634;SDS011;21757;43.610;1.440;2022-12-24T09:52:22;18.42;;;11.25;;
35634;SDS011;21757;43.610;1.440;2022-12-24T09:54:59;14.70;;;10.55;;
35634;SDS011;21757;43.610;1.440;2022-12-24T09:57:44;17.15;;;9.82;;
35634;SDS011;21757;43.610;1.440;2022-12-24T10:00:28;15.23;;;10.55;;
35634;SDS011;21757;43.610;1.440;2022-12-24T10:02:57;14.50;;;9.13;;
35634;SDS011;21757;43.610;1.440;2022-12-24T10:06:24;14.95;;;8.88;;
35634;SDS011;21757;43.610;1.440;2022-12-24T10:16:28;12.05;;;7.18;;
35634;SDS011;21757;43.610;1.440;2022-12-24T10:21:51;15.40;;;8.65;;
35634;SDS011;21757;43.610;1.440;2022-12-24T10:25:00;11.52;;;7.75;;
35634;SDS011;21757;43.610;1.440;2022-12-24T10:27:23;12.63;;;7.88;;
35634;SDS011;21757;43.610;1.440;2022-12-24T10:29:57;11.68;;;7.68;;
35634;SDS011;21757;43.610;1.440;2022-12-24T10:32:30;11.70;;;8.45;;
35634;SDS011;21757;43.610;1.440;2022-12-24T10:37:44;13.68;;;7.38;;
35634;SDS011;21757;43.610;1.440;2022-12-24T10:42:40;9.93;;;6.65;;
35634;SDS011;21757;43.610;1.440;2022-12-24T10:45:13;11.18;;;7.18;;
35634;SDS011;21757;43.610;1.440;2022-12-24T10:47:41;16.67;;;9.77;;
35634;SDS011;21757;43.610;1.440;2022-12-24T10:50:12;18.98;;;9.98;;
35634;SDS011;21757;43.610;1.440;2022-12-24T10:52:47;10.52;;;7.72;;
35634;SDS011;21757;43.610;1.440;2022-12-24T10:57:45;18.05;;;8.60;;
35634;SDS011;21757;43.610;1.440;2022-12-24T11:00:21;12.23;;;7.60;;
35634;SDS011;21757;43.610;1.440;2022-12-24T11:02:48;12.18;;;7.25;;
35634;SDS011;21757;43.610;1.440;2022-12-24T11:05:30;20.35;;;12.23;;
35634;SDS011;21757;43.610;1.440;2022-12-24T11:08:02;13.63;;;8.55;;
35634;SDS011;21757;43.610;1.440;2022-12-24T11:10:29;13.87;;;8.17;;
35634;SDS011;21757;43.610;1.440;2022-12-24T11:12:57;16.05;;;8.55;;
35634;SDS011;21757;43.610;1.440;2022-12-24T11:15:28;14.40;;;7.97;;
35634;SDS011;21757;43.610;1.440;2022-12-24T11:17:59;14.52;;;8.13;;
35634;SDS011;21757;43.610;1.440;2022-12-24T11:20:31;14.65;;;8.15;;
35634;SDS011;21757;43.610;1.440;2022-12-24T11:22:59;12.52;;;7.45;;
35634;SDS011;21757;43.610;1.440;2022-12-24T11:25:27;14.07;;;8.35;;
35634;SDS011;21757;43.610;1.440;2022-12-24T11:28:09;15.45;;;8.38;;
35634;SDS011;21757;43.610;1.440;2022-12-24T11:30:36;13.85;;;9.00;;
35634;SDS011;21757;43.610;1.440;2022-12-24T11:35:28;15.18;;;10.15;;
35634;SDS011;21757;43.610;1.440;2022-12-24T11:42:59;16.88;;;11.10;;
35634;SDS011;21757;43.610;1.440;2022-12-24T11:45:26;19.85;;;11.15;;
35634;SDS011;21757;43.610;1.440;2022-12-24T11:47:54;18.65;;;11.57;;
35634;SDS011;21757;43.610;1.440;2022-12-24T11:50:23;14.85;;;8.40;;
35634;SDS011;21757;43.610;1.440;2022-12-24T11:52:51;19.80;;;8.63;;
35634;SDS011;21757;43.610;1.440;2022-12-24T11:55:58;11.35;;;8.73;;
35634;SDS011;21757;43.610;1.440;2022-12-24T11:58:40;15.20;;;8.70;;
35634;SDS011;21757;43.610;1.440;2022-12-24T12:04:04;16.80;;;8.23;;
35634;SDS011;21757;43.610;1.440;2022-12-24T12:06:44;17.98;;;11.40;;
35634;SDS011;21757;43.610;1.440;2022-12-24T12:09:21;16.30;;;8.80;;
35634;SDS011;21757;43.610;1.440;2022-12-24T12:12:04;12.55;;;5.95;;
35634;SDS011;21757;43.610;1.440;2022-12-24T12:14:59;12.52;;;6.47;;
35634;SDS011;21757;43.610;1.440;2022-12-24T12:17:31;17.83;;;9.70;;
35634;SDS011;21757;43.610;1.440;2022-12-24T12:20:12;13.77;;;7.38;;
35634;SDS011;21757;43.610;1.440;2022-12-24T12:28:22;15.68;;;7.35;;
35634;SDS011;21757;43.610;1.440;2022-12-24T12:31:10;10.35;;;6.00;;
35634;SDS011;21757;43.610;1.440;2022-12-24T12:33:51;14.10;;;6.05;;
35634;SDS011;21757;43.610;1.440;2022-12-24T12:36:23;12.73;;;6.72;;
35634;SDS011;21757;43.610;1.440;2022-12-24T12:38:55;10.60;;;5.35;;
35634;SDS011;21757;43.610;1.440;2022-12-24T12:52:53;10.15;;;6.10;;
35634;SDS011;21757;43.610;1.440;2022-12-24T12:59:13;10.55;;;5.20;;
35634;SDS011;21757;43.610;1.440;2022-12-24T13:21:57;10.82;;;4.25;;
35634;SDS011;21757;43.610;1.440;2022-12-24T13:24:24;9.90;;;3.72;;
35634;SDS011;21757;43.610;1.440;2022-12-24T13:26:58;9.30;;;3.30;;
35634;SDS011;21757;43.610;1.440;2022-12-24T13:29:40;6.95;;;3.47;;
35634;SDS011;21757;43.610;1.440;2022-12-24T13:50:46;5.65;;;2.55;;
35634;SDS011;21757;43.610;1.440;2022-12-24T13:58:43;6.85;;;2.88;;
35634;SDS011;21757;43.610;1.440;2022-12-24T14:01:21;7.18;;;2.13;;
35634;SDS011;21757;43.610;1.440;2022-12-24T14:03:59;4.53;;;1.70;;
35634;SDS011;21757;43.610;1.440;2022-12-24T14:06:31;4.07;;;2.13;;
35634;SDS011;21757;43.610;1.440;2022-12-24T14:14:40;5.57;;;2.85;;
35634;SDS011;21757;43.610;1.440;2022-12-24T14:19:40;4.97;;;2.10;;
35634;SDS011;21757;43.610;1.440;2022-12-24T14:24:37;5.82;;;2.40;;
35634;SDS011;21757;43.610;1.440;2022-12-24T14:27:14;6.83;;;3.03;;
35634;SDS011;21757;43.610;1.440;2022-12-24T14:29:53;4.00;;;2.30;;
35634;SDS011;21757;43.610;1.440;2022-12-24T14:32:36;4.25;;;2.40;;
35634;SDS011;21757;43.610;1.440;2022-12-24T14:35:05;4.97;;;2.30;;
35634;SDS011;21757;43.610;1.440;2022-12-24T14:37:34;5.70;;;2.58;;
35634;SDS011;21757;43.610;1.440;2022-12-24T14:40:00;5.30;;;2.70;;
35634;SDS011;21757;43.610;1.440;2022-12-24T14:42:33;5.60;;;2.72;;
35634;SDS011;21757;43.610;1.440;2022-12-24T14:48:31;5.53;;;3.38;;
35634;SDS011;21757;43.610;1.440;2022-12-24T14:56:08;9.25;;;3.10;;
35634;SDS011;21757;43.610;1.440;2022-12-24T14:58:38;4.50;;;2.65;;
35634;SDS011;21757;43.610;1.440;2022-12-24T15:01:21;6.82;;;3.95;;
35634;SDS011;21757;43.610;1.440;2022-12-24T15:06:38;8.48;;;4.40;;
35634;SDS011;21757;43.610;1.440;2022-12-24T15:09:23;9.02;;;3.97;;
35634;SDS011;21757;43.610;1.440;2022-12-24T15:11:55;7.65;;;2.75;;
35634;SDS011;21757;43.610;1.440;2022-12-24T15:14:24;4.50;;;2.53;;
35634;SDS011;21757;43.610;1.440;2022-12-24T15:17:12;5.28;;;2.70;;
35634;SDS011;21757;43.610;1.440;2022-12-24T15:19:40;4.97;;;3.20;;
35634;SDS011;21757;43.610;1.440;2022-12-24T15:22:08;5.22;;;2.58;;
35634;SDS011;21757;43.610;1.440;2022-12-24T15:24:43;6.32;;;3.03;;
35634;SDS011;21757;43.610;1.440;2022-12-24T15:27:13;6.28;;;3.05;;
35634;SDS011;21757;43.610;1.440;2022-12-24T15:29:45;8.45;;;3.40;;
35634;SDS011;21757;43.610;1.440;2022-12-24T15:32:13;8.48;;;4.28;;
35634;SDS011;21757;43.610;1.440;2022-12-24T15:34:42;8.57;;;3.60;;
35634;SDS011;21757;43.610;1.440;2022-12-24T15:39:35;6.13;;;2.67;;
35634;SDS011;21757;43.610;1.440;2022-12-24T15:42:03;6.25;;;3.05;;
35634;SDS011;21757;43.610;1.440;2022-12-24T15:47:31;5.80;;;3.25;;
35634;SDS011;21757;43.610;1.440;2022-12-24T15:50:19;5.18;;;3.50;;
35634;SDS011;21757;43.610;1.440;2022-12-24T15:53:10;5.47;;;3.30;;
35634;SDS011;21757;43.610;1.440;2022-12-24T15:58:25;7.20;;;3.10;;
35634;SDS011;21757;43.610;1.440;2022-12-24T16:01:01;8.60;;;4.95;;
35634;SDS011;21757;43.610;1.440;2022-12-24T16:03:27;8.27;;;3.95;;
35634;SDS011;21757;43.610;1.440;2022-12-24T16:06:02;7.82;;;4.68;;
35634;SDS011;21757;43.610;1.440;2022-12-24T16:08:39;7.10;;;3.78;;
35634;SDS011;21757;43.610;1.440;2022-12-24T16:13:51;7.30;;;4.10;;
35634;SDS011;21757;43.610;1.440;2022-12-24T16:16:20;6.25;;;3.35;;
35634;SDS011;21757;43.610;1.440;2022-12-24T16:18:55;7.65;;;3.45;;
35634;SDS011;21757;43.610;1.440;2022-12-24T16:21:35;8.80;;;4.00;;
35634;SDS011;21757;43.610;1.440;2022-12-24T16:24:04;19.23;;;12.02;;
35634;SDS011;21757;43.610;1.440;2022-12-24T16:26:50;13.73;;;7.07;;
35634;SDS011;21757;43.610;1.440;2022-12-24T16:29:16;9.98;;;4.97;;
35634;SDS011;21757;43.610;1.440;2022-12-24T16:31:44;8.43;;;5.20;;
35634;SDS011;21757;43.610;1.440;2022-12-24T16:34:13;8.63;;;4.75;;
35634;SDS011;21757;43.610;1.440;2022-12-24T16:36:40;17.67;;;9.15;;
35634;SDS011;21757;43.610;1.440;2022-12-24T16:39:10;13.57;;;9.38;;
35634;SDS011;21757;43.610;1.440;2022-12-24T16:41:47;11.80;;;6.53;;
35634;SDS011;21757;43.610;1.440;2022-12-24T16:44:42;14.00;;;7.70;;
35634;SDS011;21757;43.610;1.440;2022-12-24T16:47:11;13.95;;;9.05;;
35634;SDS011;21757;43.610;1.440;2022-12-24T16:49:42;17.67;;;12.07;;
35634;SDS011;21757;43.610;1.440;2022-12-24T16:52:18;15.07;;;9.68;;
35634;SDS011;21757;43.610;1.440;2022-12-24T16:54:49;15.52;;;9.40;;
35634;SDS011;21757;43.610;1.440;2022-12-24T16:57:15;13.65;;;8.30;;
35634;SDS011;21757;43.610;1.440;2022-12-24T16:59:42;10.65;;;8.07;;
35634;SDS011;21757;43.610;1.440;2022-12-24T17:02:10;22.20;;;15.15;;
35634;SDS011;21757;43.610;1.440;2022-12-24T17:04:39;20.08;;;13.30;;
35634;SDS011;21757;43.610;1.440;2022-12-24T17:07:04;19.83;;;12.32;;
35634;SDS011;21757;43.610;1.440;2022-12-24T17:09:30;14.32;;;9.13;;
35634;SDS011;21757;43.610;1.440;2022-12-24T17:11:56;17.35;;;9.95;;
35634;SDS011;21757;43.610;1.440;2022-12-24T17:14:22;16.25;;;11.65;;
35634;SDS011;21757;43.610;1.440;2022-12-24T17:16:47;27.50;;;19.65;;
35634;SDS011;21757;43.610;1.440;2022-12-24T17:19:15;19.58;;;13.73;;
35634;SDS011;21757;43.610;1.440;2022-12-24T17:21:41;16.35;;;11.32;;
35634;SDS011;21757;43.610;1.440;2022-12-24T17:24:08;21.75;;;13.93;;